Terminal Aerodrome Forecast
Issued by NWS

Home | Current Version | Previous Version | Text Only | Print | Product List | Glossary On
Versions: 1 2 3 4 5 6 7 8 9 10 11 12 13 14 15 16 17
048
FTUS45 KVEF 230540
TAFDAG
TAF
KDAG 230540Z 2306/2406 24008KT P6SM VCSH SCT020 BKN040
     FM230800 24024G34KT P6SM -RA SCT030 BKN060
     FM231200 25022G32KT P6SM SCT050 BKN080=

USA.gov is the U.S. government's official web portal to all federal, state and local government web resources and services.